Time;durP1;ratioP1;P1;durP2;ratioP2;P2;SDS_P1;SDS_P2;PMS_P1;PMS_P2;Temp;Humidity;BMP_temperature;BMP_pressure;BME280_temperature;BME280_humidity;BME280_pressure;Samples;Min_cycle;Max_cycle;Signal;HPM_P1;HPM_P2
2022/09/18 00:01:00;;;;;;;5.95;2.00;;;;;9.90;95982.00;;;;8361074;28;20224;-71
2022/09/18 00:05:04;;;;;;;8.90;2.25;;;;;9.90;95979.00;;;;8361117;28;20663;-71
2022/09/18 00:09:42;;;;;;;5.82;1.95;;;;;10.00;95987.00;;;;8360728;28;20281;-71
2022/09/18 00:13:47;;;;;;;5.78;1.60;;;;;9.90;95981.00;;;;8361295;28;20661;-71
2022/09/18 00:17:50;;;;;;;5.90;1.90;;;;;10.00;95997.00;;;;8360994;28;20585;-70
2022/09/18 00:21:53;;;;;;;8.13;1.70;;;;;10.00;96008.00;;;;8360655;28;20233;-70
2022/09/18 00:26:30;;;;;;;2.45;1.77;;;;;9.90;95995.00;;;;8360976;28;20226;-70
2022/09/18 00:30:34;;;;;;;2.15;1.42;;;;;9.90;95992.00;;;;8360623;28;20557;-71
2022/09/18 00:34:38;;;;;;;3.22;1.83;;;;;9.90;95995.00;;;;8360509;28;20217;-71
2022/09/18 00:38:41;;;;;;;8.40;1.40;;;;;9.80;95998.00;;;;8360962;28;20236;-71
2022/09/18 00:42:45;;;;;;;5.25;1.52;;;;;9.70;95983.00;;;;8360034;28;20561;-71
2022/09/18 00:46:50;;;;;;;3.97;1.70;;;;;9.60;95998.00;;;;8356516;28;20221;-71
2022/09/18 00:50:53;;;;;;;2.55;1.40;;;;;9.60;96002.00;;;;8359855;28;20701;-70
2022/09/18 00:55:00;;;;;;;7.50;1.70;;;;;9.60;95999.00;;;;8360314;28;20256;-70
2022/09/18 00:59:04;;;;;;;7.85;2.28;;;;;9.50;96008.00;;;;8360326;28;20232;-70
2022/09/18 01:03:09;;;;;;;5.97;1.65;;;;;9.50;96009.00;;;;8360238;28;20225;-70
2022/09/18 01:07:18;;;;;;;9.25;1.70;;;;;9.60;96026.00;;;;8360415;28;20232;-69
2022/09/18 01:11:31;;;;;;;7.50;1.90;;;;;9.50;96015.00;;;;8359410;28;20275;-70
2022/09/18 01:15:40;;;;;;;4.45;1.50;;;;;9.50;96021.00;;;;8360017;28;20214;-70
2022/09/18 01:20:03;;;;;;;10.18;3.10;;;;;9.50;96013.00;;;;8359216;28;20281;-70
2022/09/18 01:24:34;;;;;;;11.32;2.80;;;;;9.50;96019.00;;;;8360372;28;20271;-70
2022/09/18 01:28:44;;;;;;;4.22;2.10;;;;;9.60;96020.00;;;;8359952;28;20209;-69
2022/09/18 01:32:53;;;;;;;6.70;1.90;;;;;9.60;96027.00;;;;8360281;28;20224;-70
2022/09/18 01:37:25;;;;;;;9.80;2.03;;;;;9.60;96024.00;;;;8364946;28;20212;-70
2022/09/18 01:41:30;;;;;;;6.30;1.90;;;;;9.60;96026.00;;;;8364786;28;20217;-70
2022/09/18 01:45:37;;;;;;;10.75;2.00;;;;;9.60;96022.00;;;;8364843;28;20247;-71
2022/09/18 01:49:45;;;;;;;9.52;2.10;;;;;9.60;96034.00;;;;8364487;28;20216;-69
2022/09/18 01:54:18;;;;;;;5.28;2.60;;;;;9.60;96021.00;;;;8365080;28;20221;-70
2022/09/18 01:58:24;;;;;;;9.95;2.60;;;;;9.70;96022.00;;;;8364662;28;20226;-70
2022/09/18 02:02:37;;;;;;;5.85;2.20;;;;;9.70;96009.00;;;;8364196;28;20231;-69
2022/09/18 02:06:49;;;;;;;11.57;2.50;;;;;9.70;96011.00;;;;8364739;28;20650;-70
2022/09/18 02:11:18;;;;;;;9.52;2.60;;;;;9.70;96020.00;;;;8361033;28;20228;-70
2022/09/18 02:15:24;;;;;;;7.05;2.22;;;;;9.70;96020.00;;;;8363936;28;20639;-70
2022/09/18 02:19:36;;;;;;;7.97;2.38;;;;;9.70;96022.00;;;;8363544;28;20220;-70
2022/09/18 02:24:05;;;;;;;2.85;2.30;;;;;9.60;96007.00;;;;8364449;28;20221;-70
2022/09/18 02:28:10;;;;;;;5.43;2.15;;;;;9.60;96016.00;;;;8363546;28;20222;-71
2022/09/18 02:32:14;;;;;;;5.03;2.22;;;;;9.60;96007.00;;;;8363886;28;20224;-71
2022/09/18 02:36:47;;;;;;;4.32;2.22;;;;;9.50;96007.00;;;;8362968;28;20227;-70
2022/09/18 02:40:59;;;;;;;2.35;2.08;;;;;9.50;96010.00;;;;8363267;28;20233;-70
2022/09/18 02:45:10;;;;;;;2.22;2.05;;;;;9.60;96004.00;;;;8363242;28;20312;-69
2022/09/18 02:49:21;;;;;;;11.65;2.65;;;;;9.60;96002.00;;;;8362411;28;20225;-69
2022/09/18 02:53:29;;;;;;;7.68;2.35;;;;;9.70;96011.00;;;;8363288;28;20597;-67
2022/09/18 02:57:37;;;;;;;10.07;3.00;;;;;9.60;96004.00;;;;8363523;28;20649;-67
2022/09/18 03:01:43;;;;;;;9.13;2.80;;;;;9.60;95999.00;;;;8361922;28;20511;-66
2022/09/18 03:05:46;;;;;;;7.60;2.83;;;;;9.60;95994.00;;;;8354561;28;20265;-67
2022/09/18 03:09:49;;;;;;;4.85;3.08;;;;;9.50;95996.00;;;;8362441;28;20226;-67
2022/09/18 03:13:53;;;;;;;14.63;3.90;;;;;9.50;95999.00;;;;8362030;28;20224;-68
2022/09/18 03:17:56;;;;;;;3.75;2.20;;;;;9.50;95995.00;;;;8362738;28;20216;-68
2022/09/18 03:22:00;;;;;;;7.32;2.60;;;;;9.50;95999.00;;;;8361711;28;20228;-68
2022/09/18 03:26:36;;;;;;;5.43;2.25;;;;;9.50;95992.00;;;;8361932;28;20228;-68
2022/09/18 03:30:41;;;;;;;6.10;2.17;;;;;9.50;95990.00;;;;8361634;28;20268;-68
2022/09/18 03:34:44;;;;;;;5.53;2.28;;;;;9.50;95986.00;;;;8361891;28;20221;-68
2022/09/18 03:38:47;;;;;;;4.07;2.00;;;;;9.50;95992.00;;;;8354541;28;20600;-67
2022/09/18 03:42:50;;;;;;;8.60;1.95;;;;;9.50;95991.00;;;;8360698;28;20225;-66
2022/09/18 03:46:55;;;;;;;5.80;2.05;;;;;9.40;95990.00;;;;8361801;28;20222;-67
2022/09/18 03:51:28;;;;;;;2.40;1.88;;;;;9.30;95979.00;;;;8361554;28;20273;-67
2022/09/18 03:55:32;;;;;;;4.03;2.45;;;;;9.30;95988.00;;;;8360436;28;20552;-67
2022/09/18 03:59:35;;;;;;;9.60;3.23;;;;;9.40;95999.00;;;;8360150;28;20227;-68
2022/09/18 04:04:12;;;;;;;8.07;3.28;;;;;9.50;95995.00;;;;8361656;28;20216;-69
2022/09/18 04:08:15;;;;;;;12.07;3.03;;;;;9.50;96006.00;;;;8361041;28;20229;-69
2022/09/18 04:12:18;;;;;;;14.55;3.35;;;;;9.60;96011.00;;;;8360707;28;20243;-69
2022/09/18 04:16:55;;;;;;;18.52;3.65;;;;;9.60;96009.00;;;;8360830;28;20220;-69
2022/09/18 04:20:59;;;;;;;9.00;3.13;;;;;9.70;96007.00;;;;8360743;28;20232;-69
2022/09/18 04:25:02;;;;;;;12.85;3.15;;;;;9.80;96012.00;;;;8360586;28;20256;-70
2022/09/18 04:29:39;;;;;;;7.20;3.28;;;;;9.80;96015.00;;;;8360867;28;20232;-70
2022/09/18 04:33:42;;;;;;;6.88;3.42;;;;;9.90;96008.00;;;;8360447;28;20216;-70
2022/09/18 04:37:47;;;;;;;7.15;3.83;;;;;9.90;96012.00;;;;8361167;28;20213;-71
2022/09/18 04:41:50;;;;;;;9.50;3.20;;;;;9.90;96018.00;;;;8359976;28;20274;-71
2022/09/18 04:46:27;;;;;;;13.00;2.92;;;;;9.90;96014.00;;;;8361001;28;20225;-71
2022/09/18 04:50:30;;;;;;;7.50;3.17;;;;;9.90;96010.00;;;;8360050;28;20259;-71
2022/09/18 04:54:35;;;;;;;14.23;3.53;;;;;9.90;96013.00;;;;8360220;28;20216;-70
2022/09/18 04:59:08;;;;;;;7.10;3.10;;;;;10.00;96008.00;;;;8359919;28;20220;-70
2022/09/18 05:03:11;;;;;;;8.13;3.35;;;;;9.90;96007.00;;;;8360530;28;20217;-70
2022/09/18 05:07:14;;;;;;;8.07;3.75;;;;;9.90;96010.00;;;;8360121;28;20666;-70
2022/09/18 05:11:19;;;;;;;10.80;3.30;;;;;10.00;96007.00;;;;8365851;28;20283;-70
2022/09/18 05:15:22;;;;;;;8.25;3.13;;;;;10.00;96011.00;;;;8366322;28;20669;-69
2022/09/18 05:19:25;;;;;;;12.32;3.42;;;;;9.90;96011.00;;;;8365332;28;20228;-70
2022/09/18 05:24:02;;;;;;;10.02;3.22;;;;;10.00;96012.00;;;;8365924;28;20232;-70
2022/09/18 05:28:07;;;;;;;11.00;2.97;;;;;10.00;96015.00;;;;8365092;28;20247;-70
2022/09/18 05:32:10;;;;;;;8.52;3.20;;;;;10.00;96028.00;;;;8365995;28;20655;-70
2022/09/18 05:36:46;;;;;;;6.75;2.80;;;;;10.10;96023.00;;;;8365134;28;20574;-70
2022/09/18 05:40:50;;;;;;;7.88;3.05;;;;;10.10;96020.00;;;;8365479;28;20221;-70
2022/09/18 05:44:54;;;;;;;6.93;3.10;;;;;10.20;96030.00;;;;8365233;28;21864;-70
2022/09/18 05:49:30;;;;;;;11.13;3.50;;;;;10.20;96030.00;;;;8366002;28;20221;-70
2022/09/18 05:53:34;;;;;;;11.57;3.30;;;;;10.30;96025.00;;;;8363919;28;20216;-70
2022/09/18 05:57:37;;;;;;;6.57;3.22;;;;;10.30;96031.00;;;;8365164;28;20217;-70
2022/09/18 06:02:15;;;;;;;8.65;2.72;;;;;10.30;96035.00;;;;8364125;28;20224;-71
2022/09/18 06:06:18;;;;;;;6.43;2.80;;;;;10.40;96048.00;;;;8364970;28;20220;-71
2022/09/18 06:10:55;;;;;;;4.60;2.70;;;;;10.50;96041.00;;;;8360324;28;20263;-70
2022/09/18 06:15:34;;;;;;;5.40;2.70;;;;;10.50;96061.00;;;;8362388;28;20575;-70
2022/09/18 06:19:39;;;;;;;6.20;2.45;;;;;10.60;96046.00;;;;8362549;28;20213;-71
2022/09/18 06:24:13;;;;;;;10.05;2.88;;;;;10.70;96049.00;;;;8364585;28;20551;-71
2022/09/18 06:28:50;;;;;;;4.43;2.10;;;;;10.90;96046.00;;;;8355176;28;20703;-71
2022/09/18 06:33:28;;;;;;;3.30;2.30;;;;;11.10;96048.00;;;;8363126;28;20216;-69
2022/09/18 06:37:32;;;;;;;4.22;2.03;;;;;11.20;96056.00;;;;8363459;28;20213;-69
2022/09/18 06:42:09;;;;;;;3.20;2.10;;;;;11.10;96059.00;;;;8362227;28;20224;-78
2022/09/18 06:46:46;;;;;;;5.70;2.60;;;;;11.00;96064.00;;;;8367954;28;20223;-76
2022/09/18 06:51:20;;;;;;;8.23;3.60;;;;;11.00;96063.00;;;;8363075;28;20232;-73
2022/09/18 06:56:02;;;;;;;4.30;2.13;;;;;10.90;96068.00;;;;8361030;28;20223;-74
2022/09/18 07:00:33;;;;;;;5.60;2.33;;;;;10.70;96063.00;;;;8361260;28;20225;-69
2022/09/18 07:04:36;;;;;;;10.10;2.83;;;;;10.60;96075.00;;;;8363226;28;20309;-68
2022/09/18 07:08:39;;;;;;;7.00;2.67;;;;;10.50;96074.00;;;;8361549;28;20262;-67
2022/09/18 07:12:48;;;;;;;8.43;3.92;;;;;10.50;96076.00;;;;8361635;28;20578;-68
2022/09/18 07:16:52;;;;;;;7.43;2.45;;;;;10.60;96071.00;;;;8361633;28;20247;-68
2022/09/18 07:20:55;;;;;;;5.22;2.50;;;;;10.60;96076.00;;;;8361124;28;20217;-68
2022/09/18 07:25:30;;;;;;;6.25;2.53;;;;;10.60;96072.00;;;;8360685;28;20618;-68
2022/09/18 07:30:06;;;;;;;8.60;2.92;;;;;10.70;96080.00;;;;8361304;28;20228;-68
2022/09/18 07:34:44;;;;;;;6.43;2.40;;;;;10.80;96072.00;;;;8360536;28;20719;-68
2022/09/18 07:39:19;;;;;;;5.50;2.30;;;;;10.80;96081.00;;;;8361098;28;20217;-68
2022/09/18 07:43:54;;;;;;;7.55;2.22;;;;;10.80;96084.00;;;;8361610;28;20659;-68
2022/09/18 07:48:31;;;;;;;3.85;2.45;;;;;11.00;96081.00;;;;8360282;28;20212;-67
2022/09/18 07:53:09;;;;;;;4.45;2.70;;;;;11.10;96078.00;;;;8361364;28;20239;-68
2022/09/18 07:57:46;;;;;;;9.38;2.63;;;;;11.10;96091.00;;;;8360464;28;20224;-69
2022/09/18 08:02:24;;;;;;;11.23;2.97;;;;;11.00;96078.00;;;;8361136;28;20213;-69
2022/09/18 08:06:27;;;;;;;6.65;2.55;;;;;11.00;96080.00;;;;8360423;28;20231;-69
2022/09/18 08:11:03;;;;;;;7.70;2.78;;;;;11.10;96089.00;;;;8360999;28;20275;-69
2022/09/18 08:15:36;;;;;;;5.47;2.50;;;;;11.20;96089.00;;;;8360000;28;20233;-71
2022/09/18 08:20:14;;;;;;;3.92;3.10;;;;;11.20;96092.00;;;;8360315;28;20218;-70
2022/09/18 08:24:48;;;;;;;4.13;2.55;;;;;11.20;96093.00;;;;8360271;28;20615;-70
2022/09/18 08:29:25;;;;;;;6.22;2.33;;;;;11.30;96087.00;;;;8360175;28;20213;-70
2022/09/18 08:34:03;;;;;;;6.13;2.70;;;;;11.40;96085.00;;;;8360725;28;20223;-69
2022/09/18 08:38:37;;;;;;;5.30;2.88;;;;;11.50;96089.00;;;;8360051;28;20243;-69
2022/09/18 08:43:19;;;;;;;4.20;2.20;;;;;11.40;96085.00;;;;8361833;28;20228;-69
2022/09/18 08:47:53;;;;;;;3.38;2.47;;;;;11.40;96089.00;;;;8366527;28;20223;-68
2022/09/18 08:52:38;;;;;;;4.68;2.50;;;;;11.40;96088.00;;;;8366597;28;20221;-69
2022/09/18 08:56:42;;;;;;;8.90;2.58;;;;;11.40;96085.00;;;;8366124;28;20286;-69
2022/09/18 09:01:19;;;;;;;3.05;2.38;;;;;11.30;96095.00;;;;8366763;28;20222;-67
2022/09/18 09:05:30;;;;;;;6.35;2.53;;;;;11.40;96096.00;;;;8365912;28;20265;-70
2022/09/18 09:10:05;;;;;;;3.63;2.55;;;;;11.40;96094.00;;;;8366200;28;20263;-68
2022/09/18 09:19:30;;;;;;;2.67;2.20;;;;;11.50;96092.00;;;;8365238;28;20263;-68
2022/09/18 09:24:08;;;;;;;5.03;2.20;;;;;11.70;96085.00;;;;8365474;28;20239;-68
2022/09/18 09:28:45;;;;;;;2.95;2.20;;;;;11.80;96091.00;;;;8364987;28;20220;-67
2022/09/18 09:32:54;;;;;;;3.53;1.90;;;;;12.20;96106.00;;;;8365650;28;20220;-66
2022/09/18 09:37:25;;;;;;;1.70;1.60;;;;;12.30;96114.00;;;;8363549;28;20354;-67
2022/09/18 09:42:04;;;;;;;3.00;1.70;;;;;12.20;96098.00;;;;8364167;28;20613;-67
2022/09/18 09:46:46;;;;;;;3.00;1.88;;;;;12.10;96105.00;;;;8364525;28;20276;-68
2022/09/18 09:51:17;;;;;;;3.95;1.88;;;;;12.00;96096.00;;;;8347197;28;20228;-69
2022/09/18 09:55:25;;;;;;;3.88;2.10;;;;;12.00;96114.00;;;;8363886;28;20506;-70
2022/09/18 10:00:00;;;;;;;3.53;1.90;;;;;12.20;96103.00;;;;8370373;28;20569;-69
2022/09/18 10:04:30;;;;;;;3.95;2.00;;;;;12.30;96106.00;;;;8363575;28;20363;-67
2022/09/18 10:08:45;;;;;;;4.90;1.90;;;;;12.30;96114.00;;;;8364358;28;20219;-67
2022/09/18 10:13:12;;;;;;;1.80;1.70;;;;;12.50;96106.00;;;;8363928;28;20683;-67
2022/09/18 10:17:18;;;;;;;1.92;1.80;;;;;12.50;96092.00;;;;8331110;28;20586;-66
2022/09/18 10:21:50;;;;;;;5.05;2.10;;;;;12.80;96109.00;;;;8330370;28;20239;-66
2022/09/18 10:25:58;;;;;;;2.50;1.92;;;;;13.40;96104.00;;;;8330234;28;20228;-66
2022/09/18 10:30:29;;;;;;;1.98;1.85;;;;;14.00;96093.00;;;;8330499;28;20221;-66
2022/09/18 10:34:38;;;;;;;1.85;1.75;;;;;14.20;96101.00;;;;8331234;28;20217;-65
2022/09/18 10:38:41;;;;;;;4.50;1.83;;;;;14.30;96104.00;;;;8330739;28;20276;-66
2022/09/18 10:43:19;;;;;;;5.10;2.03;;;;;14.30;96088.00;;;;8330492;28;20221;-66
2022/09/18 10:47:56;;;;;;;2.25;1.83;;;;;13.90;96085.00;;;;8331412;28;20586;-66
2022/09/18 10:52:31;;;;;;;3.88;2.45;;;;;13.60;96093.00;;;;8335276;28;20571;-66
2022/09/18 10:57:04;;;;;;;2.30;1.70;;;;;13.60;96092.00;;;;8330091;28;20224;-66
2022/09/18 11:01:12;;;;;;;3.63;2.45;;;;;13.70;96080.00;;;;8329938;28;20221;-66
2022/09/18 11:05:44;;;;;;;3.15;2.03;;;;;13.80;96083.00;;;;8328638;28;20229;-66
2022/09/18 11:09:49;;;;;;;2.20;2.03;;;;;13.70;96090.00;;;;8328219;28;20225;-67
2022/09/18 11:13:58;;;;;;;3.85;2.13;;;;;13.70;96089.00;;;;8335188;28;20257;-67
2022/09/18 11:18:34;;;;;;;1.73;1.63;;;;;13.80;96087.00;;;;8361399;28;20558;-66
2022/09/18 11:23:24;;;;;;;3.40;2.15;;;;;13.50;96081.00;;;;8362438;28;20236;-66
2022/09/18 11:27:47;;;;;;;2.65;2.10;;;;;13.20;96078.00;;;;8227222;28;20219;-66
2022/09/18 11:32:24;;;;;;;2.00;1.90;;;;;13.30;96074.00;;;;8353251;28;20223;-66
2022/09/18 11:36:32;;;;;;;6.43;2.28;;;;;13.50;96072.00;;;;8359425;28;20223;-66
2022/09/18 11:40:43;;;;;;;1.80;1.70;;;;;13.60;96076.00;;;;8361601;28;20228;-66
2022/09/18 11:44:47;;;;;;;4.72;1.98;;;;;13.50;96076.00;;;;8361339;28;20540;-66
2022/09/18 11:49:23;;;;;;;3.88;1.77;;;;;13.40;96074.00;;;;8361485;28;20227;-66
2022/09/18 11:54:03;;;;;;;2.00;1.90;;;;;13.30;96063.00;;;;8361083;28;20217;-66
2022/09/18 11:58:33;;;;;;;1.63;1.52;;;;;13.20;96055.00;;;;8361434;28;20649;-66
2022/09/18 12:03:16;;;;;;;1.98;1.88;;;;;12.90;96067.00;;;;8360805;28;20270;-66
2022/09/18 12:07:50;;;;;;;1.70;1.70;;;;;13.00;96058.00;;;;8360972;28;20641;-66
2022/09/18 12:12:21;;;;;;;1.65;1.55;;;;;13.40;96061.00;;;;8360280;28;20247;-67
2022/09/18 12:21:47;;;;;;;1.70;1.60;;;;;13.60;96053.00;;;;8360631;28;20243;-67
2022/09/18 12:26:18;;;;;;;1.25;1.25;;;;;13.50;96036.00;;;;8349928;28;20224;-67
2022/09/18 12:30:59;;;;;;;2.58;1.40;;;;;13.30;96048.00;;;;8359318;28;20212;-68
2022/09/18 12:35:18;;;;;;;2.80;1.70;;;;;13.20;96049.00;;;;8359171;28;20270;-67
2022/09/18 12:39:43;;;;;;;1.83;1.73;;;;;13.20;96045.00;;;;8360410;28;20224;-67
2022/09/18 12:44:17;;;;;;;1.52;1.42;;;;;12.90;96042.00;;;;8356645;28;20255;-66
2022/09/18 12:48:53;;;;;;;2.60;1.40;;;;;13.00;96027.00;;;;8359405;28;20216;-66
2022/09/18 12:53:26;;;;;;;3.40;1.55;;;;;13.40;96044.00;;;;8359947;28;20224;-67
2022/09/18 12:57:42;;;;;;;1.40;1.40;;;;;13.50;96031.00;;;;8359555;28;20224;-66
2022/09/18 13:02:08;;;;;;;1.70;1.60;;;;;13.50;96031.00;;;;8359498;28;20228;-66
2022/09/18 13:06:14;;;;;;;3.13;1.52;;;;;13.60;96028.00;;;;8358966;28;20236;-66
2022/09/18 13:10:22;;;;;;;1.20;1.20;;;;;13.70;96020.00;;;;8360180;28;20227;-66
2022/09/18 13:14:56;;;;;;;3.60;1.25;;;;;13.90;96031.00;;;;8359332;28;20247;-67
2022/09/18 13:19:03;;;;;;;1.80;1.55;;;;;14.00;96020.00;;;;8359457;28;20266;-66
2022/09/18 13:23:36;;;;;;;1.50;1.40;;;;;14.10;96016.00;;;;8360356;28;20228;-66
2022/09/18 13:27:39;;;;;;;4.47;1.60;;;;;14.00;96010.00;;;;8358359;28;20251;-66
2022/09/18 13:32:16;;;;;;;2.13;1.73;;;;;13.70;96008.00;;;;8363624;28;20625;-66
2022/09/18 13:36:25;;;;;;;4.45;2.10;;;;;13.80;96008.00;;;;8365219;28;20213;-66
2022/09/18 13:40:58;;;;;;;3.40;1.60;;;;;13.80;96021.00;;;;8365255;28;20224;-66
2022/09/18 13:45:06;;;;;;;1.98;1.67;;;;;13.50;96027.00;;;;8364404;28;20661;-67
2022/09/18 13:49:21;;;;;;;6.30;2.88;;;;;13.00;96025.00;;;;8365306;28;20225;-64
2022/09/18 13:54:06;;;;;;;3.35;2.00;;;;;12.70;96030.00;;;;8363948;28;20255;-64
2022/09/18 13:58:37;;;;;;;5.55;4.13;;;;;12.60;96011.00;;;;8364384;28;20224;-64
2022/09/18 14:03:18;;;;;;;8.95;8.10;;;;;12.50;96018.00;;;;8364549;28;20219;-65
2022/09/18 14:07:56;;;;;;;18.75;16.85;;;;;12.50;96020.00;;;;8364354;28;20250;-66
2022/09/18 14:12:34;;;;;;;7.72;6.53;;;;;12.50;96003.00;;;;8364128;28;20550;-66
2022/09/18 14:21:54;;;;;;;3.30;3.10;;;;;12.60;95998.00;;;;8364388;28;20230;-67
2022/09/18 14:26:36;;;;;;;15.63;10.43;;;;;12.60;95997.00;;;;8363060;28;20222;-66
2022/09/18 14:31:12;;;;;;;6.07;3.00;;;;;12.80;95990.00;;;;8363731;28;20688;-67
2022/09/18 14:35:47;;;;;;;6.55;3.10;;;;;12.80;95984.00;;;;8362096;28;20299;-68
2022/09/18 14:40:27;;;;;;;6.60;3.72;;;;;12.80;95988.00;;;;8363836;28;20291;-69
2022/09/18 14:45:09;;;;;;;4.10;3.70;;;;;12.80;95970.00;;;;8360646;28;20221;-70
2022/09/18 14:49:44;;;;;;;5.53;2.78;;;;;12.70;95962.00;;;;8361531;28;20217;-68
2022/09/18 14:54:23;;;;;;;6.32;3.45;;;;;12.60;95973.00;;;;8362869;28;20223;-68
2022/09/18 14:58:59;;;;;;;5.32;2.70;;;;;12.50;95978.00;;;;8361635;28;20217;-68
2022/09/18 15:03:36;;;;;;;20.10;16.63;;;;;12.50;95972.00;;;;8362503;28;20212;-68
2022/09/18 15:08:15;;;;;;;5.65;4.47;;;;;12.40;95975.00;;;;8361765;28;20234;-72
2022/09/18 15:12:44;;;;;;;7.07;3.03;;;;;12.40;95966.00;;;;8362875;28;20715;-72
2022/09/18 15:16:56;;;;;;;4.60;2.35;;;;;12.40;95962.00;;;;8361520;28;20232;-73
2022/09/18 15:21:25;;;;;;;5.07;2.35;;;;;12.30;95959.00;;;;8361704;28;20278;-72
2022/09/18 15:26:01;;;;;;;5.18;1.92;;;;;12.40;95959.00;;;;8361167;28;20681;-73
2022/09/18 15:30:40;;;;;;;4.15;2.00;;;;;12.40;95960.00;;;;8361241;28;20221;-74
2022/09/18 15:35:18;;;;;;;4.60;2.88;;;;;12.30;95966.00;;;;8360476;28;20307;-72
2022/09/18 15:39:51;;;;;;;6.35;3.42;;;;;12.30;95960.00;;;;8360614;28;20602;-71
2022/09/18 15:44:32;;;;;;;3.47;2.40;;;;;12.20;95952.00;;;;8361156;28;20335;-71
2022/09/18 15:49:23;;;;;;;3.72;1.80;;;;;12.10;95947.00;;;;8358183;28;20251;-70
2022/09/18 15:54:03;;;;;;;2.83;1.50;;;;;12.00;95945.00;;;;8359760;28;20622;-70
2022/09/18 15:58:29;;;;;;;6.43;2.00;;;;;11.80;95949.00;;;;8362684;28;20562;-70
2022/09/18 16:02:58;;;;;;;5.60;1.50;;;;;11.70;95946.00;;;;8361001;28;20210;-69
2022/09/18 16:07:06;;;;;;;8.63;1.88;;;;;11.60;95949.00;;;;8359619;28;20238;-68
2022/09/18 16:11:40;;;;;;;6.05;2.20;;;;;11.50;95952.00;;;;8360684;28;20587;-69
2022/09/18 16:15:46;;;;;;;2.53;1.48;;;;;11.30;95947.00;;;;8360097;28;20323;-71
2022/09/18 16:20:22;;;;;;;1.45;1.30;;;;;11.30;95930.00;;;;8360253;28;20243;-71
2022/09/18 16:24:56;;;;;;;11.48;2.03;;;;;11.20;95945.00;;;;8358940;28;20213;-72
2022/09/18 16:29:03;;;;;;;2.33;1.70;;;;;11.20;95943.00;;;;8360296;28;20338;-72
2022/09/18 16:33:16;;;;;;;3.03;1.55;;;;;11.10;95934.00;;;;8359947;28;20225;-73
2022/09/18 16:37:43;;;;;;;3.67;1.65;;;;;11.10;95934.00;;;;8359946;28;20236;-72
2022/09/18 16:42:20;;;;;;;6.35;1.85;;;;;11.00;95936.00;;;;8356330;28;20728;-72
2022/09/18 16:46:59;;;;;;;4.75;1.58;;;;;11.00;95942.00;;;;8360390;28;20221;-72
2022/09/18 16:51:36;;;;;;;6.22;1.67;;;;;11.00;95926.00;;;;8359250;28;20244;-72
2022/09/18 16:55:43;;;;;;;4.07;2.20;;;;;11.00;95925.00;;;;8359498;28;20595;-71
2022/09/18 17:00:17;;;;;;;5.63;2.90;;;;;10.90;95930.00;;;;8358933;28;20224;-71
2022/09/18 17:04:21;;;;;;;4.68;2.60;;;;;10.90;95924.00;;;;8362547;28;20232;-71
2022/09/18 17:08:58;;;;;;;3.80;2.33;;;;;10.90;95925.00;;;;8364240;28;20267;-71
2022/09/18 17:13:35;;;;;;;4.57;2.08;;;;;10.80;95923.00;;;;8364527;28;20211;-73
2022/09/18 17:17:38;;;;;;;4.35;2.22;;;;;10.80;95932.00;;;;8365288;28;20247;-70
2022/09/18 17:22:17;;;;;;;3.72;2.15;;;;;10.70;95928.00;;;;8366409;28;20220;-71
2022/09/18 17:26:52;;;;;;;5.40;2.10;;;;;10.70;95926.00;;;;8365770;28;20229;-70
2022/09/18 17:31:26;;;;;;;3.20;1.73;;;;;10.70;95932.00;;;;8365329;28;20216;-69
2022/09/18 17:36:04;;;;;;;6.75;4.45;;;;;10.60;95933.00;;;;8365759;28;20226;-72
2022/09/18 17:45:40;;;;;;;382.20;228.18;;;;;10.60;95947.00;;;;8193175;28;20322;-73
2022/09/18 17:50:07;;;;;;;67.07;36.17;;;;;10.50;95938.00;;;;8364692;28;20539;-69
2022/09/18 17:54:44;;;;;;;92.05;45.53;;;;;10.50;95942.00;;;;8364231;28;20224;-69
2022/09/18 17:59:21;;;;;;;574.67;288.30;;;;;10.50;95952.00;;;;8363447;28;20213;-69
2022/09/18 18:04:00;;;;;;;59.05;32.88;;;;;10.50;95952.00;;;;8364890;28;20247;-68
2022/09/18 18:08:04;;;;;;;255.35;141.48;;;;;10.40;95954.00;;;;8364595;28;20219;-68
2022/09/18 18:12:07;;;;;;;212.25;108.35;;;;;10.50;95950.00;;;;8363755;28;20740;-69
2022/09/18 18:16:12;;;;;;;91.18;50.35;;;;;10.40;95942.00;;;;8363860;28;20225;-68
2022/09/18 18:20:50;;;;;;;60.95;32.88;;;;;10.40;95947.00;;;;8364573;28;20664;-68
2022/09/18 18:25:24;;;;;;;303.52;168.25;;;;;10.40;95950.00;;;;8364010;28;20663;-68
2022/09/18 18:30:01;;;;;;;303.67;138.77;;;;;10.40;95950.00;;;;8363127;28;20305;-68
2022/09/18 18:34:38;;;;;;;467.92;353.85;;;;;10.30;95941.00;;;;8363076;28;20224;-70
2022/09/18 18:38:44;;;;;;;35.65;27.08;;;;;10.30;95942.00;;;;8363041;28;20220;-70
2022/09/18 18:42:48;;;;;;;10.02;6.40;;;;;10.40;95941.00;;;;8364078;28;20229;-69
2022/09/18 18:47:22;;;;;;;8.48;5.20;;;;;10.40;95927.00;;;;8359330;28;20230;-69
2022/09/18 18:52:02;;;;;;;9.48;4.18;;;;;10.40;95926.00;;;;8363644;28;20212;-69
2022/09/18 18:56:38;;;;;;;4.88;3.60;;;;;10.40;95935.00;;;;8363605;28;20280;-71
2022/09/18 19:00:41;;;;;;;8.95;3.80;;;;;10.40;95931.00;;;;8363642;28;20255;-72
2022/09/18 19:04:44;;;;;;;7.30;3.92;;;;;10.40;95924.00;;;;8363330;28;20228;-70
2022/09/18 19:09:23;;;;;;;4.50;3.53;;;;;10.40;95923.00;;;;8362388;28;20275;-71
2022/09/18 19:13:58;;;;;;;7.30;2.92;;;;;10.40;95916.00;;;;8362190;28;20303;-70
2022/09/18 19:18:03;;;;;;;5.07;2.88;;;;;10.40;95918.00;;;;8362572;28;20543;-70
2022/09/18 19:22:08;;;;;;;6.13;2.90;;;;;10.30;95924.00;;;;8363186;28;20278;-70
2022/09/18 19:26:13;;;;;;;6.13;3.20;;;;;10.30;95922.00;;;;8361141;28;20231;-70
2022/09/18 19:30:47;;;;;;;6.35;2.50;;;;;10.30;95919.00;;;;8361883;28;20224;-75
2022/09/18 19:35:23;;;;;;;3.53;2.72;;;;;10.30;95921.00;;;;8359346;28;20208;-72
2022/09/18 19:39:56;;;;;;;6.28;2.65;;;;;10.30;95923.00;;;;8354614;28;20264;-74
2022/09/18 19:44:36;;;;;;;8.32;2.90;;;;;10.30;95914.00;;;;8358941;28;20212;-75
2022/09/18 19:49:14;;;;;;;4.72;2.75;;;;;10.30;95917.00;;;;8358468;28;20716;-73
2022/09/18 19:53:45;;;;;;;4.82;2.75;;;;;10.30;95908.00;;;;8361157;28;20225;-74
2022/09/18 19:58:23;;;;;;;3.75;2.25;;;;;10.30;95912.00;;;;8348127;28;20226;-72
2022/09/18 20:02:57;;;;;;;3.53;2.53;;;;;10.20;95916.00;;;;8361278;28;20282;-73
2022/09/18 20:07:31;;;;;;;5.50;2.45;;;;;10.20;95923.00;;;;8360785;28;20318;-76
2022/09/18 20:12:08;;;;;;;2.58;2.38;;;;;10.10;95906.00;;;;8361168;28;20220;-74
2022/09/18 20:16:47;;;;;;;6.07;2.30;;;;;10.10;95914.00;;;;8359549;28;20241;-73
2022/09/18 20:21:20;;;;;;;6.28;2.70;;;;;10.10;95908.00;;;;8360750;28;20222;-73
2022/09/18 20:25:57;;;;;;;6.63;2.90;;;;;10.10;95899.00;;;;8359812;28;20696;-73
2022/09/18 20:30:01;;;;;;;5.45;2.58;;;;;10.10;95890.00;;;;8360930;28;20225;-72
2022/09/18 20:34:06;;;;;;;4.93;2.55;;;;;10.00;95891.00;;;;8360880;28;20220;-72
2022/09/18 20:38:10;;;;;;;5.55;2.63;;;;;10.00;95891.00;;;;8361590;28;20229;-74
2022/09/18 20:42:44;;;;;;;3.83;2.60;;;;;9.90;95892.00;;;;8366621;28;20228;-73
2022/09/18 20:46:55;;;;;;;4.70;2.70;;;;;10.00;95882.00;;;;8367976;28;20220;-72
2022/09/18 20:51:33;;;;;;;7.60;2.50;;;;;10.00;95888.00;;;;8366877;28;20216;-74
2022/09/18 20:56:07;;;;;;;4.45;2.67;;;;;9.90;95876.00;;;;8367341;28;20256;-75
2022/09/18 21:00:45;;;;;;;3.17;2.50;;;;;9.90;95870.00;;;;8366294;28;20570;-72
2022/09/18 21:05:22;;;;;;;5.35;2.25;;;;;9.90;95871.00;;;;8366501;28;20632;-73
2022/09/18 21:10:00;;;;;;;3.50;2.60;;;;;9.80;95868.00;;;;8366348;28;20562;-73
2022/09/18 21:14:35;;;;;;;6.95;2.53;;;;;9.80;95865.00;;;;8365934;28;20774;-74
2022/09/18 21:18:39;;;;;;;6.60;2.60;;;;;9.80;95857.00;;;;8366333;28;20683;-78
2022/09/18 21:27:35;;;;;;;6.15;2.78;;;;;9.80;95864.00;;;;8365909;28;20228;-78
2022/09/18 21:31:41;;;;;;;6.68;3.30;;;;;9.80;95856.00;;;;8365876;28;20227;-75
2022/09/18 21:35:53;;;;;;;5.28;2.75;;;;;9.80;95854.00;;;;8366162;28;20232;-74
2022/09/18 21:39:56;;;;;;;3.85;2.70;;;;;9.80;95857.00;;;;8365662;28;20217;-74
2022/09/18 21:44:02;;;;;;;7.93;2.53;;;;;9.70;95849.00;;;;8366194;28;20224;-75
2022/09/18 21:48:05;;;;;;;4.47;2.80;;;;;9.80;95840.00;;;;8365583;28;20224;-74
2022/09/18 21:52:09;;;;;;;6.97;2.83;;;;;9.70;95838.00;;;;8364404;28;20230;-75
2022/09/18 21:56:47;;;;;;;3.05;2.80;;;;;9.70;95838.00;;;;8364708;28;20222;-76
2022/09/18 22:00:52;;;;;;;3.72;2.38;;;;;9.70;95840.00;;;;8364924;28;20216;-77
2022/09/18 22:04:56;;;;;;;6.07;2.53;;;;;9.70;95847.00;;;;8364891;28;20558;-78
2022/09/18 22:09:31;;;;;;;6.47;2.80;;;;;9.70;95851.00;;;;8364986;28;20226;-81
2022/09/18 22:13:34;;;;;;;5.97;2.30;;;;;9.80;95857.00;;;;8363919;28;20212;-80
2022/09/18 22:17:39;;;;;;;3.13;1.73;;;;;9.70;95846.00;;;;8364183;28;20539;-75